Time;durP1;ratioP1;P1;durP2;ratioP2;P2;SDS_P1;SDS_P2;PMS_P1;PMS_P2;Temp;Humidity;BMP_temperature;BMP_pressure;BME280_temperature;BME280_humidity;BME280_pressure;Samples;Min_cycle;Max_cycle;Signal;HPM_P1;HPM_P2
2022/12/19 00:02:04;;;;;;;;;;;-3.00;99.90;;;;;;5027072;28;20298;-59
2022/12/19 00:04:31;;;;;;;;;;;-2.90;99.90;;;;;;5031967;28;19919;-61
2022/12/19 00:06:57;;;;;;;;;;;-3.00;99.90;;;;;;5027836;28;19963;-61
2022/12/19 00:09:23;;;;;;;;;;;-2.90;99.90;;;;;;5030779;28;19967;-60
2022/12/19 00:11:48;;;;;;;;;;;-2.90;99.90;;;;;;5032305;28;19925;-60
2022/12/19 00:14:14;;;;;;;;;;;-2.90;99.90;;;;;;5031733;28;19921;-61
2022/12/19 00:16:39;;;;;;;;;;;-2.90;99.90;;;;;;5032539;28;20000;-61
2022/12/19 00:19:05;;;;;;;;;;;-2.90;99.90;;;;;;5032379;28;19913;-60
2022/12/19 00:21:31;;;;;;;;;;;-2.90;99.90;;;;;;5026039;28;20374;-60
2022/12/19 00:23:57;;;;;;;;;;;-2.90;99.90;;;;;;5031349;28;19924;-60
2022/12/19 00:26:24;;;;;;;;;;;-2.90;99.90;;;;;;5031588;28;19909;-60
2022/12/19 00:28:51;;;;;;;;;;;-2.90;99.90;;;;;;5028661;28;19914;-60
2022/12/19 00:31:17;;;;;;;;;;;-2.90;99.90;;;;;;5030664;28;20379;-60
2022/12/19 00:33:43;;;;;;;;;;;-2.90;99.90;;;;;;5027603;28;20020;-59
2022/12/19 00:36:13;;;;;;;;;;;-2.90;99.90;;;;;;5028282;28;20025;-60
2022/12/19 00:38:42;;;;;;;;;;;-2.90;99.90;;;;;;5027110;28;19914;-61
2022/12/19 00:41:07;;;;;;;;;;;-2.90;99.90;;;;;;5029385;28;19992;-62
2022/12/19 00:43:33;;;;;;;;;;;-3.00;99.90;;;;;;5031034;28;19956;-61
2022/12/19 00:46:00;;;;;;;;;;;-3.00;99.90;;;;;;5030041;28;19909;-61
2022/12/19 00:48:26;;;;;;;;;;;-2.90;99.90;;;;;;5030682;28;19945;-60
2022/12/19 00:50:57;;;;;;;;;;;-2.90;99.90;;;;;;5028217;28;19972;-60
2022/12/19 00:53:22;;;;;;;;;;;-2.90;99.90;;;;;;5017765;28;19920;-61
2022/12/19 00:55:48;;;;;;;;;;;-2.90;99.90;;;;;;5029634;28;19922;-61
2022/12/19 00:58:13;;;;;;;;;;;-2.90;99.90;;;;;;5023552;28;20003;-61
2022/12/19 01:00:39;;;;;;;;;;;-2.90;99.90;;;;;;5030323;28;19913;-60
2022/12/19 01:03:04;;;;;;;;;;;-2.90;99.90;;;;;;5045287;28;19920;-61
2022/12/19 01:05:30;;;;;;;;;;;-2.90;99.90;;;;;;5029873;28;20415;-61
2022/12/19 01:07:55;;;;;;;;;;;-2.90;99.90;;;;;;5023570;28;20036;-62
2022/12/19 01:10:21;;;;;;;;;;;-2.90;99.90;;;;;;5021104;28;20303;-61
2022/12/19 01:12:46;;;;;;;;;;;-2.80;99.90;;;;;;5030288;28;19923;-60
2022/12/19 01:15:13;;;;;;;;;;;-2.80;99.90;;;;;;5023046;28;19928;-61
2022/12/19 01:17:38;;;;;;;;;;;-2.80;99.90;;;;;;5026500;28;19927;-61
2022/12/19 01:20:04;;;;;;;;;;;-2.80;99.90;;;;;;5030613;28;19913;-60
2022/12/19 01:22:29;;;;;;;;;;;-2.80;99.90;;;;;;5029304;28;19913;-60
2022/12/19 01:24:55;;;;;;;;;;;-2.80;99.90;;;;;;5023999;28;19913;-61
2022/12/19 01:27:20;;;;;;;;;;;-2.80;99.90;;;;;;5029632;28;19909;-61
2022/12/19 01:29:46;;;;;;;;;;;-2.80;99.90;;;;;;5029432;28;20119;-60
2022/12/19 01:32:11;;;;;;;;;;;-2.80;99.90;;;;;;5030260;28;20054;-60
2022/12/19 01:34:37;;;;;;;;;;;-2.80;99.90;;;;;;5026869;28;19925;-60
2022/12/19 01:37:02;;;;;;;;;;;-2.70;99.90;;;;;;5030206;28;20370;-59
2022/12/19 01:39:28;;;;;;;;;;;-2.70;99.90;;;;;;5025357;28;19917;-60
2022/12/19 01:41:53;;;;;;;;;;;-2.70;99.90;;;;;;5028682;28;19909;-59
2022/12/19 01:44:19;;;;;;;;;;;-2.70;99.90;;;;;;5027591;28;19913;-60
2022/12/19 01:46:48;;;;;;;;;;;-2.70;99.90;;;;;;5027573;28;20444;-61
2022/12/19 01:49:21;;;;;;;;;;;-2.70;99.90;;;;;;5024175;28;19919;-60
2022/12/19 01:51:47;;;;;;;;;;;-2.70;99.90;;;;;;5029391;28;20016;-60
2022/12/19 01:54:16;;;;;;;;;;;-2.70;99.90;;;;;;5022290;28;20434;-60
2022/12/19 01:56:44;;;;;;;;;;;-2.70;99.90;;;;;;5027988;28;20355;-60
2022/12/19 01:59:12;;;;;;;;;;;-2.70;99.90;;;;;;5021235;28;20379;-60
2022/12/19 02:01:38;;;;;;;;;;;-2.70;99.90;;;;;;5020811;28;19929;-61
2022/12/19 02:04:04;;;;;;;;;;;-2.60;99.90;;;;;;5020063;28;19913;-61
2022/12/19 02:06:30;;;;;;;;;;;-2.70;99.90;;;;;;5026837;28;19909;-60
2022/12/19 02:08:55;;;;;;;;;;;-2.60;99.90;;;;;;5025430;28;19913;-60
2022/12/19 02:11:21;;;;;;;;;;;-2.60;99.90;;;;;;5024750;28;19909;-61
2022/12/19 02:13:46;;;;;;;;;;;-2.60;99.90;;;;;;5027957;28;20125;-61
2022/12/19 02:16:12;;;;;;;;;;;-2.60;99.90;;;;;;5023817;28;19913;-60
2022/12/19 02:18:50;;;;;;;;;;;-2.60;99.90;;;;;;5021323;28;19932;-60
2022/12/19 02:21:34;;;;;;;;;;;-2.50;99.90;;;;;;5021904;28;19913;-61
2022/12/19 02:24:18;;;;;;;;;;;-2.60;99.90;;;;;;5021427;28;20341;-60
2022/12/19 02:26:52;;;;;;;;;;;-2.50;99.90;;;;;;5025700;28;20339;-60
2022/12/19 02:29:37;;;;;;;;;;;-2.50;99.90;;;;;;5023509;28;19921;-61
2022/12/19 02:32:11;;;;;;;;;;;-2.50;99.90;;;;;;5025158;28;20043;-60
2022/12/19 02:34:48;;;;;;;;;;;-2.40;99.90;;;;;;5028102;28;19917;-60
2022/12/19 02:37:17;;;;;;;;;;;-2.50;99.90;;;;;;5021317;28;20391;-61
2022/12/19 02:39:58;;;;;;;;;;;-2.40;99.90;;;;;;5026806;28;20314;-61
2022/12/19 02:42:26;;;;;;;;;;;-2.40;99.90;;;;;;5028199;28;19910;-61
2022/12/19 02:44:53;;;;;;;;;;;-2.30;99.90;;;;;;5027763;28;19913;-61
2022/12/19 02:47:20;;;;;;;;;;;-2.40;99.90;;;;;;5029014;28;19932;-61
2022/12/19 02:49:46;;;;;;;;;;;-2.40;99.90;;;;;;5029376;28;19917;-60
2022/12/19 02:52:31;;;;;;;;;;;-2.30;99.90;;;;;;5028860;28;19967;-61
2022/12/19 02:55:01;;;;;;;;;;;-2.30;99.90;;;;;;5016394;28;20012;-60
2022/12/19 02:57:29;;;;;;;;;;;-2.30;99.90;;;;;;5022831;28;19920;-59
2022/12/19 03:00:04;;;;;;;;;;;-2.30;99.90;;;;;;5021305;28;19936;-61
2022/12/19 03:02:47;;;;;;;;;;;-2.20;99.90;;;;;;5020858;28;19921;-61
2022/12/19 03:05:22;;;;;;;;;;;-2.30;99.90;;;;;;5023474;28;19913;-60
2022/12/19 03:07:54;;;;;;;;;;;-2.20;99.90;;;;;;5026315;28;19917;-58
2022/12/19 03:10:22;;;;;;;;;;;-2.20;99.90;;;;;;5029311;28;19980;-60
2022/12/19 03:12:50;;;;;;;;;;;-2.20;99.90;;;;;;5025042;28;19940;-61
2022/12/19 03:15:15;;;;;;;;;;;-2.20;99.90;;;;;;5041432;22;20291;-58
2022/12/19 03:17:41;;;;;;;;;;;-2.10;99.90;;;;;;5026982;28;19917;-59
2022/12/19 03:20:08;;;;;;;;;;;-2.10;99.90;;;;;;5028496;28;19921;-57
2022/12/19 03:22:33;;;;;;;;;;;-2.10;99.90;;;;;;5027757;28;20443;-59
2022/12/19 03:24:59;;;;;;;;;;;-2.10;99.90;;;;;;5028356;28;20024;-56
2022/12/19 03:27:27;;;;;;;;;;;-2.10;99.90;;;;;;5028750;28;19920;-59
2022/12/19 03:30:01;;;;;;;;;;;-2.10;99.90;;;;;;5019935;28;19919;-56
2022/12/19 03:32:27;;;;;;;;;;;-2.10;99.90;;;;;;5029446;28;19913;-56
2022/12/19 03:34:58;;;;;;;;;;;-2.10;99.90;;;;;;5022570;28;19996;-59
2022/12/19 03:37:26;;;;;;;;;;;-2.10;99.90;;;;;;5027545;28;19955;-57
2022/12/19 03:39:53;;;;;;;;;;;-2.10;99.90;;;;;;5026079;28;20380;-59
2022/12/19 03:45:05;;;;;;;;;;;-2.10;99.90;;;;;;5020668;28;19916;-59
2022/12/19 03:47:39;;;;;;;;;;;-2.00;99.90;;;;;;5027053;28;20301;-61
2022/12/19 03:50:05;;;;;;;;;;;-2.00;99.90;;;;;;5024410;28;20303;-58
2022/12/19 03:52:30;;;;;;;;;;;-2.00;99.90;;;;;;5025893;28;19909;-58
2022/12/19 03:55:15;;;;;;;;;;;-2.00;99.90;;;;;;5024416;28;20019;-60
2022/12/19 03:57:51;;;;;;;;;;;-2.00;99.90;;;;;;5021707;28;20583;-56
2022/12/19 04:00:17;;;;;;;;;;;-2.00;99.90;;;;;;5023747;28;20335;-59
2022/12/19 04:02:45;;;;;;;;;;;-2.00;99.90;;;;;;5027100;28;19948;-59
2022/12/19 04:05:13;;;;;;;;;;;-2.00;99.90;;;;;;5022576;28;20776;-59
2022/12/19 04:07:39;;;;;;;;;;;-2.00;99.90;;;;;;5027714;28;19920;-59
2022/12/19 04:10:06;;;;;;;;;;;-2.00;99.90;;;;;;5024645;28;19996;-56
2022/12/19 04:12:34;;;;;;;;;;;-1.90;99.90;;;;;;5029332;28;19917;-59
2022/12/19 04:15:00;;;;;;;;;;;-1.90;99.90;;;;;;5027467;28;20386;-57
2022/12/19 04:17:29;;;;;;;;;;;-1.90;99.90;;;;;;5030888;28;20021;-58
2022/12/19 04:20:04;;;;;;;;;;;-1.90;99.90;;;;;;5025618;28;19923;-59
2022/12/19 04:22:32;;;;;;;;;;;-1.90;99.90;;;;;;5029687;28;19920;-56
2022/12/19 04:24:59;;;;;;;;;;;-1.90;99.90;;;;;;5026166;28;20122;-59
2022/12/19 04:27:25;;;;;;;;;;;-1.90;99.90;;;;;;5030510;28;19952;-58
2022/12/19 04:29:53;;;;;;;;;;;-1.80;99.90;;;;;;5022774;28;20223;-58
2022/12/19 04:32:19;;;;;;;;;;;-1.90;99.90;;;;;;5024950;28;20307;-60
2022/12/19 04:34:44;;;;;;;;;;;-1.80;99.90;;;;;;5027303;28;19924;-56
2022/12/19 04:37:11;;;;;;;;;;;-1.80;99.90;;;;;;5022719;28;19913;-58
2022/12/19 04:39:36;;;;;;;;;;;-1.80;99.90;;;;;;5029693;28;19924;-59
2022/12/19 04:42:02;;;;;;;;;;;-1.80;99.90;;;;;;5031357;28;19913;-58
2022/12/19 04:44:27;;;;;;;;;;;-1.80;99.90;;;;;;5030884;28;19920;-58
2022/12/19 04:46:52;;;;;;;;;;;-1.80;99.90;;;;;;5028159;28;19913;-58
2022/12/19 04:49:18;;;;;;;;;;;-1.80;99.90;;;;;;5031582;28;19978;-59
2022/12/19 04:51:43;;;;;;;;;;;-1.80;99.90;;;;;;5024623;28;19909;-62
2022/12/19 04:54:09;;;;;;;;;;;-1.70;99.90;;;;;;5030018;28;20083;-59
2022/12/19 04:56:34;;;;;;;;;;;-1.70;99.90;;;;;;5028795;28;19979;-59
2022/12/19 04:59:00;;;;;;;;;;;-1.70;99.90;;;;;;5024643;28;20606;-60
2022/12/19 05:01:26;;;;;;;;;;;-1.70;99.90;;;;;;5028776;28;20012;-60
2022/12/19 05:03:51;;;;;;;;;;;-1.70;99.90;;;;;;5025994;28;19918;-60
2022/12/19 05:06:17;;;;;;;;;;;-1.70;99.90;;;;;;5030243;28;19922;-59
2022/12/19 05:08:43;;;;;;;;;;;-1.70;99.90;;;;;;5025089;28;20000;-59
2022/12/19 05:11:10;;;;;;;;;;;-1.70;99.90;;;;;;5029926;28;20008;-59
2022/12/19 05:13:35;;;;;;;;;;;-1.60;99.90;;;;;;5022727;28;19917;-59
2022/12/19 05:16:02;;;;;;;;;;;-1.60;99.90;;;;;;5027634;28;19971;-60
2022/12/19 05:18:28;;;;;;;;;;;-1.60;99.90;;;;;;5029847;28;20375;-60
2022/12/19 05:20:54;;;;;;;;;;;-1.60;99.90;;;;;;5016977;28;19913;-60
2022/12/19 05:23:20;;;;;;;;;;;-1.50;99.90;;;;;;5030712;28;19920;-60
2022/12/19 05:25:45;;;;;;;;;;;-1.50;99.90;;;;;;5026927;28;19922;-58
2022/12/19 05:28:11;;;;;;;;;;;-1.40;99.90;;;;;;5044052;28;19917;-59
2022/12/19 05:30:36;;;;;;;;;;;-1.50;99.90;;;;;;5026647;28;19928;-60
2022/12/19 05:33:02;;;;;;;;;;;-1.50;99.90;;;;;;5016261;28;19917;-59
2022/12/19 05:35:27;;;;;;;;;;;-1.50;99.90;;;;;;5027982;28;20006;-60
2022/12/19 05:37:53;;;;;;;;;;;-1.50;99.90;;;;;;5023143;28;20387;-58
2022/12/19 05:40:18;;;;;;;;;;;-1.40;99.90;;;;;;5027371;28;19909;-60
2022/12/19 05:42:44;;;;;;;;;;;-1.40;99.90;;;;;;5029698;28;20383;-59
2022/12/19 05:45:09;;;;;;;;;;;-1.30;99.90;;;;;;5026037;28;20455;-58
2022/12/19 05:47:35;;;;;;;;;;;-1.30;99.90;;;;;;5028515;28;19948;-60
2022/12/19 05:50:00;;;;;;;;;;;-1.30;99.90;;;;;;5020467;28;19909;-59
2022/12/19 05:52:26;;;;;;;;;;;-1.30;99.90;;;;;;5024985;28;20371;-59
2022/12/19 05:54:51;;;;;;;;;;;-1.30;99.90;;;;;;5029935;28;19913;-60
2022/12/19 05:57:17;;;;;;;;;;;-1.20;99.90;;;;;;5027206;28;19910;-61
2022/12/19 05:59:42;;;;;;;;;;;-1.20;99.90;;;;;;5029594;28;20010;-60
2022/12/19 06:02:08;;;;;;;;;;;-1.20;99.90;;;;;;5026068;28;20303;-58
2022/12/19 06:04:33;;;;;;;;;;;-1.20;99.90;;;;;;5028052;28;19988;-59
2022/12/19 06:06:59;;;;;;;;;;;-1.10;99.90;;;;;;5026341;28;20260;-59
2022/12/19 06:09:24;;;;;;;;;;;-1.10;99.90;;;;;;5029148;28;20022;-55
2022/12/19 06:11:50;;;;;;;;;;;-1.00;99.90;;;;;;5021831;28;19917;-59
2022/12/19 06:14:16;;;;;;;;;;;-1.00;99.90;;;;;;5025097;28;19917;-58
2022/12/19 06:16:41;;;;;;;;;;;-0.90;99.90;;;;;;5029102;28;20314;-60
2022/12/19 06:19:07;;;;;;;;;;;-1.00;99.90;;;;;;5044514;28;19917;-60
2022/12/19 06:21:32;;;;;;;;;;;-0.90;99.90;;;;;;5028900;28;19935;-59
2022/12/19 06:23:57;;;;;;;;;;;-0.90;99.90;;;;;;5025403;28;19920;-59
2022/12/19 06:26:23;;;;;;;;;;;-0.90;99.90;;;;;;5026405;28;19914;-59
2022/12/19 06:28:50;;;;;;;;;;;-0.90;99.90;;;;;;5025901;28;19909;-59
2022/12/19 06:31:15;;;;;;;;;;;-0.90;99.90;;;;;;5029943;28;20256;-59
2022/12/19 06:33:41;;;;;;;;;;;-0.80;99.90;;;;;;5025381;28;19960;-59
2022/12/19 06:36:10;;;;;;;;;;;-0.80;99.90;;;;;;5026806;28;20378;-59
2022/12/19 06:38:35;;;;;;;;;;;-0.80;99.90;;;;;;5029720;28;20028;-60
2022/12/19 06:43:46;;;;;;;;;;;-0.70;99.90;;;;;;5029839;28;20378;-61
2022/12/19 06:46:11;;;;;;;;;;;-0.70;99.90;;;;;;5025205;28;19913;-59
2022/12/19 06:48:37;;;;;;;;;;;-0.70;99.90;;;;;;5027483;28;19921;-60
2022/12/19 06:51:02;;;;;;;;;;;-0.60;99.90;;;;;;5028920;28;19913;-60
2022/12/19 06:53:28;;;;;;;;;;;-0.60;99.90;;;;;;5026723;28;19917;-57
2022/12/19 06:55:55;;;;;;;;;;;-0.60;99.90;;;;;;5029173;28;20239;-60
2022/12/19 06:58:20;;;;;;;;;;;-0.50;99.90;;;;;;5025894;28;19984;-60
2022/12/19 07:00:46;;;;;;;;;;;-0.50;99.90;;;;;;5029012;28;19921;-59
2022/12/19 07:03:14;;;;;;;;;;;-0.50;99.90;;;;;;5021917;28;19920;-59
2022/12/19 07:05:40;;;;;;;;;;;-0.40;99.90;;;;;;5026167;28;20397;-59
2022/12/19 07:08:07;;;;;;;;;;;-0.40;99.90;;;;;;5028842;28;19999;-59
2022/12/19 07:10:32;;;;;;;;;;;-0.40;99.90;;;;;;5026337;28;19917;-59
2022/12/19 07:12:58;;;;;;;;;;;-0.40;99.90;;;;;;5029811;28;19913;-59
2022/12/19 07:15:24;;;;;;;;;;;-0.40;99.90;;;;;;5023456;28;20007;-60
2022/12/19 07:17:49;;;;;;;;;;;-0.30;99.90;;;;;;5020872;28;19913;-59
2022/12/19 07:20:15;;;;;;;;;;;-0.30;99.90;;;;;;5028167;28;20041;-61
2022/12/19 07:22:41;;;;;;;;;;;-0.30;99.90;;;;;;5022100;28;19968;-61
2022/12/19 07:25:07;;;;;;;;;;;-0.30;99.90;;;;;;5027731;28;19941;-60
2022/12/19 07:27:32;;;;;;;;;;;-0.30;99.90;;;;;;5026068;28;20393;-60
2022/12/19 07:29:58;;;;;;;;;;;-0.30;99.90;;;;;;5024683;28;19913;-59
2022/12/19 07:32:23;;;;;;;;;;;-0.30;99.90;;;;;;5025343;28;19909;-60
2022/12/19 07:34:49;;;;;;;;;;;-0.20;99.90;;;;;;5021242;28;19920;-60
2022/12/19 07:37:14;;;;;;;;;;;-0.20;99.90;;;;;;5029046;28;19957;-61
2022/12/19 07:39:40;;;;;;;;;;;-0.20;99.90;;;;;;5021932;28;20333;-60
2022/12/19 07:42:05;;;;;;;;;;;-0.20;99.90;;;;;;5043239;28;19980;-60
2022/12/19 07:44:30;;;;;;;;;;;-0.20;99.90;;;;;;5032689;28;19909;-61
2022/12/19 07:46:56;;;;;;;;;;;-0.20;99.90;;;;;;5027459;28;20405;-59
2022/12/19 07:49:21;;;;;;;;;;;-0.20;99.90;;;;;;5032034;28;19932;-58
2022/12/19 07:51:47;;;;;;;;;;;-0.20;99.90;;;;;;5025381;28;19957;-59
2022/12/19 07:54:12;;;;;;;;;;;-0.20;99.90;;;;;;5032242;28;19996;-59
2022/12/19 07:56:38;;;;;;;;;;;-0.20;99.90;;;;;;5020210;28;19913;-59
2022/12/19 07:59:03;;;;;;;;;;;-0.20;99.90;;;;;;5028759;28;20325;-63
2022/12/19 08:01:29;;;;;;;;;;;-0.10;99.90;;;;;;5024811;28;19916;-61
2022/12/19 08:03:54;;;;;;;;;;;-0.10;99.90;;;;;;5027436;28;19913;-60
2022/12/19 08:06:20;;;;;;;;;;;-0.10;99.90;;;;;;5032082;28;19955;-61
2022/12/19 08:08:45;;;;;;;;;;;-0.10;99.90;;;;;;5025548;28;20268;-61
2022/12/19 08:11:12;;;;;;;;;;;-0.10;99.90;;;;;;5028637;28;19944;-60
2022/12/19 08:13:38;;;;;;;;;;;0.00;99.90;;;;;;5024973;28;19921;-61
2022/12/19 08:16:04;;;;;;;;;;;0.00;99.90;;;;;;5027314;28;19969;-62
2022/12/19 08:18:29;;;;;;;;;;;0.00;99.90;;;;;;5032226;28;19971;-60
2022/12/19 08:20:54;;;;;;;;;;;0.00;99.90;;;;;;5026272;28;19913;-60
2022/12/19 08:23:20;;;;;;;;;;;0.00;99.90;;;;;;5032546;28;19909;-61
2022/12/19 08:25:45;;;;;;;;;;;0.10;99.90;;;;;;5024225;28;19956;-60
2022/12/19 08:28:11;;;;;;;;;;;0.10;99.90;;;;;;5029253;28;19963;-60
2022/12/19 08:30:37;;;;;;;;;;;0.10;99.90;;;;;;5029940;28;19988;-59
2022/12/19 08:33:04;;;;;;;;;;;0.10;99.90;;;;;;5027406;28;19918;-59
2022/12/19 08:35:30;;;;;;;;;;;0.10;99.90;;;;;;5026769;28;19916;-59
2022/12/19 08:37:56;;;;;;;;;;;0.10;99.90;;;;;;5031878;28;19909;-59
2022/12/19 08:40:22;;;;;;;;;;;0.10;99.90;;;;;;5028395;28;20387;-59
2022/12/19 08:42:49;;;;;;;;;;;0.10;99.90;;;;;;5028241;28;20198;-59
2022/12/19 08:45:15;;;;;;;;;;;0.20;99.90;;;;;;5027063;28;19909;-59
2022/12/19 08:47:42;;;;;;;;;;;0.20;99.90;;;;;;5029280;28;19913;-59
2022/12/19 08:50:08;;;;;;;;;;;0.20;99.90;;;;;;5026732;28;19913;-60
2022/12/19 08:52:33;;;;;;;;;;;0.20;99.90;;;;;;5031588;28;19920;-59
2022/12/19 08:54:59;;;;;;;;;;;0.20;99.90;;;;;;5029464;28;19913;-59
2022/12/19 08:57:25;;;;;;;;;;;0.30;99.90;;;;;;5027595;28;19916;-60
2022/12/19 08:59:50;;;;;;;;;;;0.30;99.90;;;;;;5030331;28;20067;-59
2022/12/19 09:02:16;;;;;;;;;;;0.30;99.90;;;;;;5026744;28;19909;-59
2022/12/19 09:04:41;;;;;;;;;;;0.30;99.90;;;;;;5028979;28;20007;-61
2022/12/19 09:07:07;;;;;;;;;;;0.30;99.90;;;;;;5025947;28;20391;-60
2022/12/19 09:09:32;;;;;;;;;;;0.30;99.90;;;;;;5028459;28;20392;-60
2022/12/19 09:11:57;;;;;;;;;;;0.30;99.90;;;;;;5031472;28;19931;-61
2022/12/19 09:14:23;;;;;;;;;;;0.30;99.90;;;;;;5027358;28;19967;-61
2022/12/19 09:16:48;;;;;;;;;;;0.30;99.90;;;;;;5052075;22;20304;-55
2022/12/19 09:19:15;;;;;;;;;;;0.40;99.90;;;;;;5029994;28;19909;-56
2022/12/19 09:21:40;;;;;;;;;;;0.40;99.90;;;;;;5030472;28;20027;-57
2022/12/19 09:24:07;;;;;;;;;;;0.40;99.90;;;;;;5030826;28;19913;-56
2022/12/19 09:26:33;;;;;;;;;;;0.40;99.90;;;;;;5027594;28;19920;-54
2022/12/19 09:28:59;;;;;;;;;;;0.40;99.90;;;;;;5027135;28;19913;-53
2022/12/19 09:31:25;;;;;;;;;;;0.40;99.90;;;;;;5023072;28;20442;-56
2022/12/19 09:33:51;;;;;;;;;;;0.50;99.90;;;;;;5025212;28;19913;-60
2022/12/19 09:36:18;;;;;;;;;;;0.50;99.90;;;;;;5029001;28;19913;-53
2022/12/19 09:38:43;;;;;;;;;;;0.50;99.90;;;;;;5029888;28;20183;-54
2022/12/19 09:41:09;;;;;;;;;;;0.50;99.90;;;;;;5027702;28;20363;-55
2022/12/19 09:43:48;;;;;;;;;;;0.60;99.90;;;;;;5026647;28;19909;-52
2022/12/19 09:46:18;;;;;;;;;;;0.60;99.90;;;;;;5029610;28;20113;-53
2022/12/19 09:48:47;;;;;;;;;;;0.60;99.90;;;;;;5028625;28;19935;-55
2022/12/19 09:51:15;;;;;;;;;;;0.60;99.90;;;;;;5029617;28;19913;-52
2022/12/19 09:53:52;;;;;;;;;;;0.60;99.90;;;;;;5027196;28;19920;-53
2022/12/19 09:56:18;;;;;;;;;;;0.60;99.90;;;;;;5029983;28;19917;-52
2022/12/19 09:58:50;;;;;;;;;;;0.60;99.90;;;;;;5020270;28;19917;-51
2022/12/19 10:01:18;;;;;;;;;;;0.70;99.90;;;;;;5030268;28;19960;-54
2022/12/19 10:03:46;;;;;;;;;;;0.70;99.90;;;;;;5023674;28;19932;-52
2022/12/19 10:06:11;;;;;;;;;;;0.70;99.90;;;;;;5029357;28;19924;-52
2022/12/19 10:08:38;;;;;;;;;;;0.80;99.90;;;;;;5024117;28;19913;-55
2022/12/19 10:11:08;;;;;;;;;;;0.80;99.90;;;;;;5028175;28;19913;-52
2022/12/19 10:13:37;;;;;;;;;;;0.80;99.90;;;;;;5029523;28;20178;-53
2022/12/19 10:16:04;;;;;;;;;;;0.90;99.90;;;;;;5026583;28;19917;-52
2022/12/19 10:18:36;;;;;;;;;;;0.80;99.90;;;;;;5029847;28;20307;-53
2022/12/19 10:21:24;;;;;;;;;;;0.80;99.90;;;;;;5024344;28;20003;-55
2022/12/19 10:23:58;;;;;;;;;;;0.80;99.90;;;;;;5018961;28;19916;-58
2022/12/19 10:26:43;;;;;;;;;;;0.90;99.90;;;;;;5025528;28;19948;-57
2022/12/19 10:29:18;;;;;;;;;;;0.90;99.90;;;;;;5023343;28;20406;-53
2022/12/19 10:31:51;;;;;;;;;;;0.90;99.90;;;;;;5030113;28;19909;-56
2022/12/19 10:34:29;;;;;;;;;;;0.90;99.90;;;;;;5024210;28;20322;-52
2022/12/19 10:36:59;;;;;;;;;;;0.90;99.90;;;;;;5027606;28;19917;-56
2022/12/19 10:39:28;;;;;;;;;;;0.90;99.90;;;;;;5021019;28;20392;-53
2022/12/19 10:41:56;;;;;;;;;;;0.90;99.90;;;;;;5025555;28;20372;-55
2022/12/19 10:44:23;;;;;;;;;;;1.00;99.90;;;;;;5022895;28;19923;-52
2022/12/19 10:46:49;;;;;;;;;;;1.00;99.90;;;;;;5021836;28;20004;-54
2022/12/19 10:49:15;;;;;;;;;;;1.00;99.90;;;;;;5022076;28;19992;-52
2022/12/19 10:51:41;;;;;;;;;;;1.00;99.90;;;;;;5022845;28;19915;-52
2022/12/19 10:54:07;;;;;;;;;;;1.10;99.90;;;;;;5028074;28;19928;-52
2022/12/19 10:56:34;;;;;;;;;;;1.10;99.90;;;;;;5029244;28;20298;-55
2022/12/19 10:59:00;;;;;;;;;;;1.10;99.90;;;;;;5024589;28;20299;-53
2022/12/19 11:01:25;;;;;;;;;;;1.10;99.90;;;;;;5029365;28;19917;-52
2022/12/19 11:04:08;;;;;;;;;;;1.10;99.90;;;;;;5027142;28;20408;-58
2022/12/19 11:06:40;;;;;;;;;;;1.20;99.90;;;;;;5028452;28;19966;-52
2022/12/19 11:09:23;;;;;;;;;;;1.20;99.90;;;;;;5022888;28;19985;-55
2022/12/19 11:11:55;;;;;;;;;;;1.20;99.90;;;;;;5026214;28;19928;-56
2022/12/19 11:14:21;;;;;;;;;;;1.20;99.90;;;;;;5022821;28;20094;-56
2022/12/19 11:16:47;;;;;;;;;;;1.30;99.90;;;;;;5027895;28;19917;-56
2022/12/19 11:19:29;;;;;;;;;;;1.30;99.90;;;;;;5030535;28;19951;-56
2022/12/19 11:21:59;;;;;;;;;;;1.30;99.90;;;;;;5025979;28;19924;-56
2022/12/19 11:24:28;;;;;;;;;;;1.30;99.90;;;;;;5032436;28;20390;-55
2022/12/19 11:26:54;;;;;;;;;;;1.30;99.90;;;;;;5022011;28;19917;-56
2022/12/19 11:29:26;;;;;;;;;;;1.40;99.90;;;;;;5029288;28;19967;-56
2022/12/19 11:31:58;;;;;;;;;;;1.40;99.90;;;;;;5033015;28;19917;-57
2022/12/19 11:34:25;;;;;;;;;;;1.40;99.90;;;;;;5027978;28;19939;-54
2022/12/19 11:36:53;;;;;;;;;;;1.40;99.90;;;;;;5030101;28;20373;-53
2022/12/19 11:39:25;;;;;;;;;;;1.50;99.90;;;;;;5033478;28;20035;-55
2022/12/19 11:41:58;;;;;;;;;;;1.50;99.90;;;;;;5029310;28;19920;-57
2022/12/19 11:44:37;;;;;;;;;;;1.50;99.90;;;;;;5032987;28;19913;-57
2022/12/19 11:47:22;;;;;;;;;;;1.50;99.90;;;;;;5020340;28;19960;-54
2022/12/19 11:49:50;;;;;;;;;;;1.50;99.90;;;;;;5030228;28;19964;-54
2022/12/19 11:52:19;;;;;;;;;;;1.50;99.90;;;;;;5030223;28;19952;-56
2022/12/19 11:54:53;;;;;;;;;;;1.60;99.90;;;;;;5030963;28;20391;-57
2022/12/19 11:57:19;;;;;;;;;;;1.60;99.90;;;;;;5028428;28;20059;-57
2022/12/19 11:59:45;;;;;;;;;;;1.60;99.90;;;;;;5031172;28;20000;-56
2022/12/19 12:02:20;;;;;;;;;;;1.60;99.90;;;;;;5040210;28;19920;-55
2022/12/19 12:04:51;;;;;;;;;;;1.60;99.90;;;;;;5030395;28;20379;-56
2022/12/19 12:07:17;;;;;;;;;;;1.60;99.90;;;;;;5027025;28;19910;-56
2022/12/19 12:09:46;;;;;;;;;;;1.70;99.90;;;;;;5027778;28;19924;-56
2022/12/19 12:12:21;;;;;;;;;;;1.70;99.90;;;;;;5028086;28;19913;-57
2022/12/19 12:14:54;;;;;;;;;;;1.70;99.90;;;;;;5026677;28;19913;-56
2022/12/19 12:17:19;;;;;;;;;;;1.70;99.90;;;;;;5047516;28;19963;-55
2022/12/19 12:20:00;;;;;;;;;;;1.70;99.90;;;;;;5026118;28;19910;-57
2022/12/19 12:22:31;;;;;;;;;;;1.80;99.90;;;;;;5032210;28;19913;-59
2022/12/19 12:25:03;;;;;;;;;;;1.80;99.90;;;;;;5022963;28;19987;-56
2022/12/19 12:27:47;;;;;;;;;;;1.80;99.90;;;;;;5029105;28;20297;-57
2022/12/19 12:30:20;;;;;;;;;;;1.80;99.90;;;;;;5024245;28;19913;-57
2022/12/19 12:32:51;;;;;;;;;;;1.80;99.90;;;;;;5029735;28;19917;-57
2022/12/19 12:35:16;;;;;;;;;;;1.90;99.90;;;;;;5025872;28;20657;-54
2022/12/19 12:37:51;;;;;;;;;;;1.90;99.90;;;;;;5027857;28;19913;-57
2022/12/19 12:40:26;;;;;;;;;;;1.90;99.90;;;;;;5026229;28;19910;-54
2022/12/19 12:42:51;;;;;;;;;;;1.90;99.90;;;;;;5030411;28;19913;-58
2022/12/19 12:45:24;;;;;;;;;;;1.90;99.90;;;;;;5025745;28;19913;-53
2022/12/19 12:47:51;;;;;;;;;;;1.90;99.90;;;;;;5029619;28;20445;-56
2022/12/19 12:50:17;;;;;;;;;;;2.00;99.90;;;;;;5026408;28;19910;-55
2022/12/19 12:52:48;;;;;;;;;;;2.00;99.90;;;;;;5028736;28;19916;-55
2022/12/19 12:55:14;;;;;;;;;;;2.00;99.90;;;;;;5030688;28;19967;-57
2022/12/19 12:57:39;;;;;;;;;;;2.00;99.90;;;;;;5027821;28;19956;-55
2022/12/19 13:00:14;;;;;;;;;;;2.10;99.90;;;;;;5030508;28;19937;-57
2022/12/19 13:02:40;;;;;;;;;;;2.10;99.90;;;;;;5026859;28;19921;-56
2022/12/19 13:05:24;;;;;;;;;;;2.10;99.90;;;;;;5029025;28;19909;-57
2022/12/19 13:07:51;;;;;;;;;;;2.20;99.90;;;;;;5025828;28;20367;-56
2022/12/19 13:10:22;;;;;;;;;;;2.20;99.90;;;;;;5028606;28;19909;-56
2022/12/19 13:12:58;;;;;;;;;;;2.20;99.90;;;;;;5027308;28;19921;-56
2022/12/19 13:15:27;;;;;;;;;;;2.30;99.90;;;;;;5026919;28;19971;-54
2022/12/19 13:17:52;;;;;;;;;;;2.30;99.90;;;;;;5030231;28;20015;-57
2022/12/19 13:20:17;;;;;;;;;;;2.30;99.90;;;;;;5025329;28;19987;-57
2022/12/19 13:23:01;;;;;;;;;;;2.40;99.90;;;;;;5028828;28;20039;-58
2022/12/19 13:25:32;;;;;;;;;;;2.40;99.90;;;;;;5025539;28;19913;-58
2022/12/19 13:28:01;;;;;;;;;;;2.40;99.90;;;;;;5026502;28;20008;-57
2022/12/19 13:30:27;;;;;;;;;;;2.40;99.90;;;;;;5026903;28;19948;-54
2022/12/19 13:32:53;;;;;;;;;;;2.50;99.90;;;;;;5027644;28;19971;-58
2022/12/19 13:35:18;;;;;;;;;;;2.60;99.90;;;;;;5025779;28;19921;-58
2022/12/19 13:37:45;;;;;;;;;;;2.60;99.90;;;;;;5029520;28;19916;-54
2022/12/19 13:40:31;;;;;;;;;;;2.60;99.90;;;;;;5029580;28;19928;-58
2022/12/19 13:45:46;;;;;;;;;;;2.70;99.90;;;;;;5029324;28;19998;-57
2022/12/19 13:48:14;;;;;;;;;;;2.80;99.90;;;;;;5020555;28;20387;-58
2022/12/19 13:50:40;;;;;;;;;;;2.80;99.90;;;;;;5028499;28;19979;-58
2022/12/19 13:53:13;;;;;;;;;;;2.90;99.90;;;;;;5027902;28;19909;-59
2022/12/19 13:55:39;;;;;;;;;;;2.90;99.90;;;;;;5028578;28;19917;-56
2022/12/19 13:58:04;;;;;;;;;;;2.90;99.90;;;;;;5029696;28;19913;-54
2022/12/19 14:00:34;;;;;;;;;;;3.00;99.90;;;;;;5028579;28;19913;-59
2022/12/19 14:03:00;;;;;;;;;;;3.00;99.90;;;;;;5026294;28;19920;-58
2022/12/19 14:05:31;;;;;;;;;;;3.10;99.90;;;;;;5023040;28;20367;-57
2022/12/19 14:07:57;;;;;;;;;;;3.20;99.90;;;;;;5023040;28;19913;-57
2022/12/19 14:10:27;;;;;;;;;;;3.20;99.90;;;;;;5030344;28;19913;-56
2022/12/19 14:15:39;;;;;;;;;;;3.30;99.90;;;;;;5025390;28;20466;-57
2022/12/19 14:18:13;;;;;;;;;;;3.40;99.90;;;;;;5025206;28;19941;-57
2022/12/19 14:20:39;;;;;;;;;;;3.40;99.90;;;;;;5027995;28;19909;-56
2022/12/19 14:23:04;;;;;;;;;;;3.50;99.90;;;;;;5027575;28;20151;-56
2022/12/19 14:25:33;;;;;;;;;;;3.50;99.90;;;;;;5025210;28;19913;-58
2022/12/19 14:28:02;;;;;;;;;;;3.60;99.90;;;;;;5027797;28;20185;-56
2022/12/19 14:30:30;;;;;;;;;;;3.60;99.90;;;;;;5027338;28;19909;-55
2022/12/19 14:32:56;;;;;;;;;;;3.70;99.90;;;;;;5018893;28;19920;-57
2022/12/19 14:35:25;;;;;;;;;;;3.70;99.90;;;;;;5018541;28;19914;-59
2022/12/19 14:37:58;;;;;;;;;;;3.80;99.90;;;;;;5029558;28;20338;-57
2022/12/19 14:40:25;;;;;;;;;;;3.80;99.90;;;;;;5021313;28;20008;-57